Downloads

-JavaCPC -demo -emu -j-cpc_ani -tools 0-9 A B C D E F G H I J K L M N O P Q R S T U V W X Y Z ZZZ_UNK roms
FILEDATESIZEDLs
KTris by Richard Wilson (PD).zip 2017-04-21 16:14 2 Kb307
Kaiser (G) (19xx).zip 2017-04-21 16:13 91 Kb371
Kane & Nebulus & Renaud - Marche a l'Ombre.zip 2017-04-21 16:13 95 Kb216
Kane (UK) (1986).zip 2017-04-21 16:13 28 Kb321
Kane (UK) (1986) [a1].zip 2017-04-21 16:13 80 Kb327
Kane (UK) (1986) [a2].zip 2017-04-21 16:13 38 Kb294
Kane (UK) (1986) [t1].zip 2017-04-21 16:13 38 Kb324
Karateka (F) (1986).zip 2017-04-21 16:13 50 Kb311
Karateka (F) (1986) [f1].zip 2017-04-21 16:13 50 Kb326
Karateka (F) (1986) [t1].zip 2017-04-21 16:13 50 Kb313
Karateka (F) (1990).zip 2017-04-21 16:13 49 Kb307
Karateka (F) (1990) [t1].zip 2017-04-21 16:13 49 Kb314
Karateka (F).dsk 2017-04-21 16:13 192 Kb308
Karl's Treasure Hunt (UK) (1984).zip 2017-04-21 16:13 11 Kb319
Karl's Treasure Hunt (UK) (1984) [a1].zip 2017-04-21 16:13 84 Kb315
Karl's Treasure Hunt (UK) (1984) [a2].zip 2017-04-21 16:13 11 Kb302
Karnov (E) - Disk 1A.dsk 2017-04-21 16:13 214 Kb292
Karnov (E) - Disk 1B.dsk 2017-04-21 16:13 214 Kb289
Karnov (UK) (1988) (Disk 1 of 2).zip 2017-04-21 16:13 73 Kb263
Karnov (UK) (1988) (Disk 1 of 2) [a1].zip 2017-04-21 16:13 56 Kb260
Karnov (UK) (1988) (Disk 1 of 2) [t1].zip 2017-04-21 16:13 159 Kb272
Karnov (UK) (1988) (Disk 1 of 2) [t2].zip 2017-04-21 16:13 73 Kb256
Karnov (UK) (1988) (Disk 2 of 2).zip 2017-04-21 16:13 62 Kb267
Karnov (UK) (1988) (Disk 2 of 2) [a1].zip 2017-04-21 16:13 105 Kb266
Karnov (UK) (1988) (Disk 2 of 2) [t2].zip 2017-04-21 16:13 62 Kb299
Kat Trap (E).dsk 2017-04-21 16:13 91 Kb263
Kat Trap (UK) (1987).zip 2017-04-21 16:13 34 Kb269
Keep Yourself Alive (F) (1987).zip 2017-04-21 16:13 19 Kb274
Kenny Dalglish Soccer Manager (E).cdt 2017-04-21 16:13 57 Kb275
Kenny Dalglish Soccer Manager (UK) (1989).zip 2017-04-21 16:13 25 Kb264
Kenny Dalglish Soccer Match (UK) (1990).zip 2017-04-21 16:13 29 Kb262
Kentilla (UK) (1985).zip 2017-04-21 16:13 23 Kb273
Kentilla (UK) (1985) [a1].zip 2017-04-21 16:13 30 Kb268
Kentucky Racing (E).cdt 2017-04-21 16:13 45 Kb272
Kentucky Racing (UK) (1990).zip 2017-04-21 16:13 24 Kb265
Kentucky Racing (UK) (1990) [f1].zip 2017-04-21 16:13 24 Kb271
Kessia (F) (19xx).zip 2017-04-21 16:13 72 Kb263
Kettle (E).dsk 2017-04-21 16:13 193 Kb259
Kettle (UK) (1986).zip 2017-04-21 16:13 21 Kb275
Kevin Thacker's CPC Guide (UK) (19xx) (PD) (Disk 1 of 2).zip 2017-04-21 16:13 47 Kb257
Kevin Thacker's CPC Guide (UK) (19xx) (PD) (Disk 2 of 2).zip 2017-04-21 16:13 41 Kb264
Key Factor, The (UK) (1985).zip 2017-04-21 16:13 13 Kb265
Kick Off (UK,F,G,S,I) (1990).zip 2017-04-21 16:13 27 Kb268
Kick Off (UK,F,G,S,I) (1990) [a1].zip 2017-04-21 16:13 131 Kb262
Kick Off (UK,F,G,S,I) (1990) [a2].zip 2017-04-21 16:13 31 Kb258
Kick Off 2 (E) - Disk 1A.dsk 2017-04-21 16:13 178 Kb275
Kick Off 2 (E) - Disk 1B.dsk 2017-04-21 16:13 178 Kb269
Kick Off 2 (F) (1990).zip 2017-04-21 16:13 68 Kb267
Kick Off 2 (F) (1990) [a1].zip 2017-04-21 16:13 68 Kb266
Kikstart II (UK) (1988).zip 2017-04-21 16:13 24 Kb276
Kikstart II (UK) (1988) [a1].zip 2017-04-21 16:13 23 Kb273
Killapede (UK) (1986).zip 2017-04-21 16:13 26 Kb265
Killapede (UK) (1986) [a1].zip 2017-04-21 16:13 26 Kb262
Killapede (UK) (1986) [a2].zip 2017-04-21 16:13 32 Kb272
Killapede (UK) (1986) [a3].zip 2017-04-21 16:13 30 Kb298
Killed Until Dead (UK) (1987) (Disk 1 of 2).zip 2017-04-21 16:13 50 Kb256
Killed Until Dead (UK) (1987) (Disk 2 of 2).zip 2017-04-21 16:13 62 Kb260
Killer Ball (UK) (1991).zip 2017-04-21 16:14 103 Kb268
Killer Ball (UK) (1991) [a1].zip 2017-04-21 16:13 103 Kb265
Killer Ball (UK) (1991) [a2].zip 2017-04-21 16:13 76 Kb266
Killer Ball (UK) (1991) [a3].zip 2017-04-21 16:13 96 Kb263
Killer Cobra (E).cdt 2017-04-21 16:14 49 Kb269
Killer Cobra (UK) (1987).zip 2017-04-21 16:14 27 Kb270
Killer Cobra (UK) (1987) [a1].zip 2017-04-21 16:14 27 Kb270
Killer Cobra (UK) (1987) [a2].zip 2017-04-21 16:14 31 Kb263
Killer Gorilla & Knight Lore & Laserwarp & Molecule Man & Zaxx (F).zip 2017-04-21 16:14 82 Kb176
Killer Gorilla (UK) (1984).zip 2017-04-21 16:14 19 Kb269
Killer Gorilla (UK) (1984) [a1].zip 2017-04-21 16:14 19 Kb275
Killer Gorilla (UK) (1984) [a2].zip 2017-04-21 16:14 15 Kb280
Killer Gorilla (UK) (1984) [a3].zip 2017-04-21 16:14 18 Kb272
Killer Gorilla (UK) (1984) [b1].zip 2017-04-21 16:14 19 Kb269
Killer Gorilla (UK) (1984) [b2].zip 2017-04-21 16:14 19 Kb270
Killer Ring (UK) (1987).zip 2017-04-21 16:14 16 Kb276
Killer Ring (UK) (1987) [a1].zip 2017-04-21 16:14 16 Kb275
Kiloroid (UK) (19xx).zip 2017-04-21 16:14 2 Kb269
Kim (F) (1986).zip 2017-04-21 16:14 9 Kb273
Kinetic (UK) (1987).zip 2017-04-21 16:14 35 Kb268
Kinetic (UK) (1987) [a1].zip 2017-04-21 16:14 36 Kb273
Kinetic (UK) (1987) [a2].zip 2017-04-21 16:14 35 Kb275
Kinetik (E).dsk 2017-04-21 16:14 195 Kb283
Kingdom of Hamil (UK) (1987).zip 2017-04-21 16:14 57 Kb270
Kingdoms (UK) (1985).zip 2017-04-21 16:14 5 Kb267
Kit de Telechargement - Telecharge Amstrad CPC (F).dsk 2017-04-21 16:14 217 Kb272
Kit de Telechargement pour Amstrad CPC (F).dsk 2017-04-21 16:14 191 Kb284
Klax & Meynaumede (F) & Nervous Break Down (F) & Skweek.zip 2017-04-21 16:14 97 Kb178
Klax (E).dsk 2017-04-21 16:14 172 Kb268
Klax (UK) (1990) (CPM).zip 2017-04-21 16:14 44 Kb258
Klax (UK) (1990) (CPM) [a1].zip 2017-04-21 16:14 44 Kb277
Klax (UK) (1990) (CPM Version).zip 2017-04-21 16:14 43 Kb260
Klax (UK) (1990) (CPM Version) [a1].zip 2017-04-21 16:14 43 Kb270
Klax (UK) (1990) (Cart).zip 2017-04-21 16:14 41 Kb270
Klax (UK) (1990).zip 2017-04-21 16:14 42 Kb264
Klax (UK) (1990) [a1].zip 2017-04-21 16:14 42 Kb274
Klax (UK) (1990) [h1].zip 2017-04-21 16:14 52 Kb263
Klax (UK) (1990) [h2].zip 2017-04-21 16:14 54 Kb273
Knaves and thou Prisoners (UK) (19xx).zip 2017-04-21 16:14 8 Kb256
Knight Force (F) (1989) (Disk 1 of 2).zip 2017-04-21 16:14 54 Kb262
Knight Force (F) (1989) (Disk 1 of 2) [t1].zip 2017-04-21 16:14 55 Kb257
Knight Force (F) (1989) (Disk 1 of 2) [t2] & Power Drift.zip 2017-04-21 16:14 108 Kb162
Knight Force (F) (1989) (Disk 1 of 2) [t2].zip 2017-04-21 16:14 75 Kb256
Knight Force (F) (1989) (Disk 2 of 2).zip 2017-04-21 16:14 76 Kb265
Knight Force (F) - Disk 1A.dsk 2017-04-21 16:14 456 Kb264
Knight Force (F) - Disk 1B.dsk 2017-04-21 16:14 627 Kb264
Knight Games (E) - Side A.cdt 2017-04-21 16:14 166 Kb271
Knight Games (E) - Side B.cdt 2017-04-21 16:14 142 Kb266
Knight Games (UK) (1986) (Disk 1 of 2).zip 2017-04-21 16:14 88 Kb272
Knight Games (UK) (1986) (Disk 1 of 2) [a1].zip 2017-04-21 16:14 83 Kb260
Knight Games (UK) (1986) (Disk 1 of 2) [a2].zip 2017-04-21 16:14 83 Kb262
Knight Games (UK) (1986) (Disk 1 of 2) [a3].zip 2017-04-21 16:14 103 Kb257
Knight Games (UK) (1986) (Disk 2 of 2).zip 2017-04-21 16:14 94 Kb268
Knight Games (UK) (1986) (Disk 2 of 2) [a1].zip 2017-04-21 16:14 76 Kb265
Knight Games (UK) (1986) (Disk 2 of 2) [a2].zip 2017-04-21 16:14 79 Kb261
Knight Games (UK) (1986) (Disk 2 of 2) [a3].zip 2017-04-21 16:14 109 Kb260
Knight Games (UK) (1986) [f1][t1].zip 2017-04-21 16:14 179 Kb262
Knight Lore (E).cdt 2017-04-21 16:14 42 Kb270
Knight Lore (UK) (1984).zip 2017-04-21 16:14 25 Kb282
Knight Lore (UK) (1984) [a1].zip 2017-04-21 16:14 25 Kb260
Knight Lore (UK) (1984) [a2].zip 2017-04-21 16:14 25 Kb270
Knight Moves (F) (19xx) (Disk 1 of 2).zip 2017-04-21 16:14 60 Kb262
Knight Moves (F) (19xx) (Disk 2 of 2).zip 2017-04-21 16:14 83 Kb265
Knight Orc (E) - Disk 1A.dsk 2017-04-21 16:14 194 Kb264
Knight Orc (E) - Disk 1B.dsk 2017-04-21 16:14 199 Kb262
Knight Orc (UK) (1987) (Disk 1 of 2).zip 2017-04-21 16:14 119 Kb273
Knight Orc (UK) (1987) (Disk 2 of 2).zip 2017-04-21 16:14 110 Kb268
Knight Rider (E).cdt 2017-04-21 16:14 45 Kb269
Knight Rider (UK) (1986).zip 2017-04-21 16:14 20 Kb264
Knight Rider (UK) (1986) [h1].zip 2017-04-21 16:14 32 Kb261
Knight Rider (UK) (1986) [h2].zip 2017-04-21 16:14 21 Kb269
Knight Tyme (E).cdt 2017-04-21 16:14 57 Kb272
Knight Tyme (UK) (1986).zip 2017-04-21 16:14 31 Kb276
Knight Tyme (UK) (1986) [a1].zip 2017-04-21 16:14 31 Kb267
Knight Tyme (UK) (1986) [t1].zip 2017-04-21 16:14 31 Kb260
Knightmare (E).dsk 2017-04-21 16:14 213 Kb280
Knightmare (UK) (1987).zip 2017-04-21 16:14 29 Kb264
Knightmare (UK) (1987) [a1].zip 2017-04-21 16:14 30 Kb263
Knightmare (UK) (1987) [a2].zip 2017-04-21 16:14 30 Kb274
Knightmare (UK) (1987) [t1].zip 2017-04-21 16:14 33 Kb265
Know (G).dsk 2017-04-21 16:14 192 Kb283
Kobayashi Naru (UK) (19xx).zip 2017-04-21 16:14 31 Kb276
Kobayashi Naru (UK) (1987).zip 2017-04-21 16:14 31 Kb280
Kobayashi Naru (UK) (1987) [a1].zip 2017-04-21 16:14 31 Kb264
Kobayashi Naru (UK) (1987) [a2].zip 2017-04-21 16:14 48 Kb288
Kokotoni Wilf (UK) (19xx).zip 2017-04-21 16:14 137 Kb276
Kokotoni Wilf (UK) (19xx) [a1].zip 2017-04-21 16:14 35 Kb273
Kokotoni Wilf (UK) (19xx) [f1][t1].zip 2017-04-21 16:14 37 Kb266
Konami's Golf (UK) (1986).zip 2017-04-21 16:14 24 Kb262
Konami's Golf (UK) (1986) [a1].zip 2017-04-21 16:14 24 Kb265
Konami's Golf (UK) (1986) [a2].zip 2017-04-21 16:14 26 Kb273
Konami Coin-op Hits (UK) (19xx) (Disk 1 of 2).zip 2017-04-21 16:14 50 Kb269
Konami Coin-op Hits (UK) (19xx) (Disk 1 of 2) [a1].zip 2017-04-21 16:14 50 Kb256
Konami Coin-op Hits (UK) (19xx) (Disk 2 of 2).zip 2017-04-21 16:14 65 Kb258
Konami Coin-op Hits (UK) (19xx) (Disk 2 of 2) [a1].zip 2017-04-21 16:14 65 Kb278
Konami Coin-op Hits (UK) (19xx) (Disk 2 of 2) [a2].zip 2017-04-21 16:14 65 Kb258
Kong Strikes Back (UK) (1985).zip 2017-04-21 16:14 21 Kb283
Kong Strikes Back (UK) (1985) [a1].zip 2017-04-21 16:14 21 Kb281
Kong Strikes Back (UK) (1985) [a2].zip 2017-04-21 16:14 23 Kb268
Koronis Rift (E).dsk 2017-04-21 16:14 186 Kb267
Koronis Rift (UK) (1987).zip 2017-04-21 16:14 57 Kb271
Krakout (E).cdt 2017-04-21 16:14 64 Kb278
Krakout (E).dsk 2017-04-21 16:14 171 Kb271
Krakout (UK) (1987).zip 2017-04-21 16:14 31 Kb274
Krakout (UK) (1987) [h1].zip 2017-04-21 16:14 34 Kb271
Kristal (F).dsk 2017-04-21 16:14 191 Kb272
Kristal (UK) (1985).zip 2017-04-21 16:14 16 Kb276
Kristax (UK) (1989).zip 2017-04-21 16:14 9 Kb277
Krypton Factor (UK) (1987) (Disk 1 of 2).zip 2017-04-21 16:14 52 Kb260
Krypton Factor (UK) (1987) (Disk 1 of 2) [a1].zip 2017-04-21 16:14 47 Kb272
Krypton Factor (UK) (1987) (Disk 2 of 2).zip 2017-04-21 16:14 5 Kb264
Krypton Factor (UK) (1987) (Disk 2 of 2) [a1].zip 2017-04-21 16:14 21 Kb268
Kung-Fu (UK) (1986).zip 2017-04-21 16:14 19 Kb273
Kung-Fu Master (E).dsk 2017-04-21 16:14 191 Kb263
Kung-Fu Master (UK) (1986).zip 2017-04-21 16:14 28 Kb280
Kung-Fu Master (UK) (1986) [h1].zip 2017-04-21 16:14 22 Kb272
Kwah (UK) (1987).zip 2017-04-21 16:14 36 Kb261
Kwik Snax (E).cdt 2017-04-21 16:14 65 Kb286
Kwik Snax (UK) (1990).zip 2017-04-21 16:14 22 Kb268
Kwik Snax (UK) (1990) [f1].zip 2017-04-21 16:14 33 Kb280
Kwik Snax (UK) (1990) [h1].zip 2017-04-21 16:14 41 Kb270
Kwik Snax (UK) (1990) [t1].zip 2017-04-21 16:14 33 Kb274
kobayashi Naru (E).cdt 2017-04-21 16:14 74 Kb274
180 Files
-JavaCPC -demo -emu -j-cpc_ani -tools 0-9 A B C D E F G H I J K L M N O P Q R S T U V W X Y Z ZZZ_UNK roms